Time;durP1;ratioP1;P1;durP2;ratioP2;P2;SDS_P1;SDS_P2;PMS_P1;PMS_P2;Temp;Humidity;BMP_temperature;BMP_pressure;BME280_temperature;BME280_humidity;BME280_pressure;Samples;Min_cycle;Max_cycle;Signal;HPM_P1;HPM_P2
2023/11/04 00:00:55;;;;;;;0.40;0.40;;;4.70;99.90;;;;;;2098733;28;20700;-73
2023/11/04 00:01:56;;;;;;;0.73;0.60;;;4.70;99.90;;;;;;2102176;28;20323;-73
2023/11/04 00:02:57;;;;;;;0.50;0.50;;;4.70;99.90;;;;;;2102925;28;20306;-73
2023/11/04 00:03:57;;;;;;;1.20;0.70;;;4.70;99.90;;;;;;2102207;28;20223;-73
2023/11/04 00:04:58;;;;;;;0.50;0.50;;;4.80;99.90;;;;;;2102275;28;20265;-73
2023/11/04 00:05:58;;;;;;;1.93;0.40;;;4.80;99.90;;;;;;2104325;28;20230;-73
2023/11/04 00:07:00;;;;;;;0.90;0.40;;;4.80;99.90;;;;;;2091121;28;20720;-73
2023/11/04 00:08:00;;;;;;;3.63;1.30;;;4.90;99.90;;;;;;2090840;28;20232;-75
2023/11/04 00:09:01;;;;;;;3.23;0.40;;;4.90;99.90;;;;;;2099042;28;20786;-74
2023/11/04 00:10:02;;;;;;;0.50;0.50;;;4.90;99.90;;;;;;2102168;28;20288;-72
2023/11/04 00:11:02;;;;;;;0.50;0.50;;;4.90;99.90;;;;;;2094488;28;20206;-74
2023/11/04 00:12:03;;;;;;;0.53;0.50;;;4.90;99.90;;;;;;2091986;28;20197;-73
2023/11/04 00:13:04;;;;;;;0.50;0.50;;;4.90;99.90;;;;;;2090885;28;20196;-73
2023/11/04 00:14:04;;;;;;;0.50;0.50;;;4.90;99.90;;;;;;2095761;28;20666;-73
2023/11/04 00:15:06;;;;;;;0.57;0.53;;;5.00;99.90;;;;;;2096767;28;20199;-73
2023/11/04 00:16:09;;;;;;;0.75;0.30;;;4.90;99.90;;;;;;2092054;28;20210;-73
2023/11/04 00:17:10;;;;;;;0.40;0.40;;;4.90;99.90;;;;;;2094491;28;20186;-73
2023/11/04 00:18:10;;;;;;;0.50;0.50;;;4.90;99.90;;;;;;2088935;28;20197;-73
2023/11/04 00:19:11;;;;;;;0.33;0.33;;;4.90;99.90;;;;;;2096076;28;20209;-73
2023/11/04 00:20:12;;;;;;;0.77;0.60;;;5.00;99.90;;;;;;2095358;28;20299;-73
2023/11/04 00:21:12;;;;;;;0.70;0.50;;;5.00;99.90;;;;;;2090953;28;20266;-73
2023/11/04 00:22:14;;;;;;;0.40;0.40;;;5.00;99.90;;;;;;2089789;28;20199;-73
2023/11/04 00:23:14;;;;;;;0.50;0.50;;;5.00;99.90;;;;;;2089423;28;20292;-73
2023/11/04 00:24:15;;;;;;;0.50;0.50;;;4.90;99.90;;;;;;2088845;28;20191;-72
2023/11/04 00:25:16;;;;;;;0.50;0.50;;;4.90;99.90;;;;;;2087240;28;20210;-73
2023/11/04 00:26:16;;;;;;;0.60;0.60;;;4.90;99.90;;;;;;2093043;28;20596;-73
2023/11/04 00:27:17;;;;;;;0.50;0.50;;;5.00;99.90;;;;;;2085869;28;20599;-73
2023/11/04 00:28:19;;;;;;;0.60;0.50;;;5.00;99.90;;;;;;2083807;28;20189;-72
2023/11/04 00:29:19;;;;;;;0.50;0.50;;;5.10;99.90;;;;;;2090065;28;20739;-72
2023/11/04 00:30:20;;;;;;;0.40;0.40;;;5.00;99.90;;;;;;2096201;28;20188;-72
2023/11/04 00:31:20;;;;;;;0.53;0.43;;;5.00;99.90;;;;;;2093545;28;20237;-72
2023/11/04 00:32:22;;;;;;;0.73;0.60;;;5.10;99.90;;;;;;2098931;28;20322;-72
2023/11/04 00:33:23;;;;;;;0.75;0.32;;;5.20;99.90;;;;;;2099843;28;20605;-72
2023/11/04 00:34:23;;;;;;;1.60;0.60;;;5.20;99.90;;;;;;2094140;28;20246;-71
2023/11/04 00:35:25;;;;;;;1.10;0.47;;;5.10;99.90;;;;;;2093301;28;20241;-72
2023/11/04 00:36:25;;;;;;;0.45;0.43;;;5.10;99.90;;;;;;2098623;28;20232;-72
2023/11/04 00:37:26;;;;;;;0.40;0.40;;;5.10;99.90;;;;;;2107855;28;20234;-72
2023/11/04 00:38:27;;;;;;;0.40;0.40;;;5.10;99.90;;;;;;2098587;28;20227;-72
2023/11/04 00:39:27;;;;;;;0.40;0.40;;;5.10;99.90;;;;;;2094027;28;20230;-72
2023/11/04 00:40:28;;;;;;;0.47;0.47;;;5.10;99.90;;;;;;2097832;28;20227;-71
2023/11/04 00:41:30;;;;;;;2.07;0.83;;;5.00;99.90;;;;;;2098348;28;20271;-72
2023/11/04 00:42:31;;;;;;;0.60;0.40;;;5.00;99.90;;;;;;2085742;28;20311;-72
2023/11/04 00:43:33;;;;;;;0.93;0.40;;;5.00;99.90;;;;;;2084277;28;20235;-72
2023/11/04 00:44:34;;;;;;;0.45;0.45;;;5.00;99.90;;;;;;2085043;28;20228;-72
2023/11/04 00:45:35;;;;;;;0.50;0.50;;;4.90;99.90;;;;;;2093236;28;20262;-72
2023/11/04 00:46:36;;;;;;;0.43;0.43;;;4.80;99.90;;;;;;2093662;28;20299;-72
2023/11/04 00:47:37;;;;;;;0.55;0.50;;;4.80;99.90;;;;;;2098862;28;20707;-72
2023/11/04 00:48:38;;;;;;;0.50;0.50;;;4.80;99.90;;;;;;2093492;28;20229;-71
2023/11/04 00:49:38;;;;;;;0.47;0.47;;;4.70;99.90;;;;;;2088343;28;20722;-72
2023/11/04 00:50:39;;;;;;;0.40;0.40;;;4.60;99.90;;;;;;2092805;28;20235;-72
2023/11/04 00:51:39;;;;;;;0.40;0.40;;;4.60;99.90;;;;;;2094063;28;20223;-72
2023/11/04 00:52:40;;;;;;;0.53;0.50;;;4.50;99.90;;;;;;2094607;28;20224;-72
2023/11/04 00:53:41;;;;;;;0.50;0.50;;;4.50;99.90;;;;;;2099726;28;20305;-72
2023/11/04 00:54:41;;;;;;;1.83;0.57;;;4.60;99.90;;;;;;2092641;28;20236;-72
2023/11/04 00:55:42;;;;;;;0.43;0.43;;;4.50;99.90;;;;;;2100135;28;20341;-72
2023/11/04 00:56:43;;;;;;;0.40;0.40;;;4.50;99.90;;;;;;2099017;28;20592;-72
2023/11/04 00:57:44;;;;;;;0.40;0.40;;;4.50;99.90;;;;;;2099375;28;20602;-72
2023/11/04 00:58:45;;;;;;;0.55;0.55;;;4.50;99.90;;;;;;2096614;28;20704;-72
2023/11/04 00:59:45;;;;;;;0.60;0.60;;;4.50;99.90;;;;;;2096388;28;20237;-72
2023/11/04 01:00:46;;;;;;;0.43;0.40;;;4.50;99.90;;;;;;2088576;28;20232;-72
2023/11/04 01:01:47;;;;;;;0.43;0.43;;;4.50;99.90;;;;;;2100220;28;20471;-72
2023/11/04 01:02:48;;;;;;;0.40;0.40;;;4.40;99.90;;;;;;2101876;28;20225;-72
2023/11/04 01:03:48;;;;;;;0.70;0.70;;;4.40;99.90;;;;;;2093582;28;20620;-72
2023/11/04 01:04:50;;;;;;;0.40;0.40;;;4.40;99.90;;;;;;2092640;28;20235;-72
2023/11/04 01:05:50;;;;;;;0.40;0.40;;;4.40;99.90;;;;;;2089072;28;20601;-73
2023/11/04 01:06:51;;;;;;;0.47;0.43;;;4.50;99.90;;;;;;2091726;28;20227;-72
2023/11/04 01:07:52;;;;;;;0.77;0.57;;;4.50;99.90;;;;;;2092377;28;20211;-73
2023/11/04 01:08:52;;;;;;;0.40;0.40;;;4.50;99.90;;;;;;2088395;28;20235;-73
2023/11/04 01:09:53;;;;;;;0.40;0.40;;;4.50;99.90;;;;;;2096902;28;20228;-73
2023/11/04 01:10:53;;;;;;;0.50;0.50;;;4.50;99.90;;;;;;2096186;28;20739;-72
2023/11/04 01:11:54;;;;;;;0.57;0.50;;;4.50;99.90;;;;;;2094862;28;20254;-72
2023/11/04 01:12:54;;;;;;;0.60;0.40;;;4.50;99.90;;;;;;2095403;28;20235;-73
2023/11/04 01:13:55;;;;;;;0.83;0.67;;;4.50;99.90;;;;;;2096454;28;20227;-72
2023/11/04 01:14:56;;;;;;;1.40;0.43;;;4.60;99.90;;;;;;2088981;28;20232;-73
2023/11/04 01:15:57;;;;;;;0.30;0.30;;;4.60;99.90;;;;;;2090409;28;20265;-73
2023/11/04 01:16:57;;;;;;;1.85;0.60;;;4.70;99.90;;;;;;2089175;28;20287;-72
2023/11/04 01:17:58;;;;;;;0.63;0.63;;;4.70;99.90;;;;;;2093171;28;20747;-73
2023/11/04 01:18:59;;;;;;;0.40;0.40;;;4.70;99.90;;;;;;2096466;28;20228;-72
2023/11/04 01:19:59;;;;;;;1.73;0.50;;;4.70;99.90;;;;;;2096444;28;20231;-72
2023/11/04 01:21:00;;;;;;;0.60;0.60;;;4.70;99.90;;;;;;2096450;28;20227;-73
2023/11/04 01:22:01;;;;;;;1.20;0.50;;;4.70;99.90;;;;;;2085774;28;20236;-73
2023/11/04 01:23:01;;;;;;;0.57;0.47;;;4.80;99.90;;;;;;2093772;28;20186;-73
2023/11/04 01:24:02;;;;;;;0.80;0.53;;;4.80;99.90;;;;;;2087149;28;20556;-73
2023/11/04 01:25:03;;;;;;;0.33;0.33;;;4.90;99.90;;;;;;2081893;28;20194;-73
2023/11/04 01:26:04;;;;;;;0.40;0.40;;;4.90;99.90;;;;;;2079343;28;20223;-72
2023/11/04 01:27:08;;;;;;;0.60;0.60;;;5.00;99.90;;;;;;2087883;28;20188;-72
2023/11/04 01:28:09;;;;;;;0.40;0.40;;;5.00;99.90;;;;;;2081316;28;20196;-73
2023/11/04 01:29:11;;;;;;;0.50;0.50;;;5.00;99.90;;;;;;2080617;28;20227;-72
2023/11/04 01:30:12;;;;;;;0.55;0.55;;;5.10;99.90;;;;;;2081578;28;20422;-72
2023/11/04 01:31:13;;;;;;;1.20;0.60;;;5.00;99.90;;;;;;2089584;28;20185;-72
2023/11/04 01:32:13;;;;;;;1.80;0.50;;;5.10;99.90;;;;;;2089074;28;20187;-72
2023/11/04 01:33:14;;;;;;;0.50;0.40;;;5.10;99.90;;;;;;2088704;28;20621;-72
2023/11/04 01:34:15;;;;;;;0.40;0.40;;;5.20;99.90;;;;;;2079417;28;20205;-72
2023/11/04 01:35:15;;;;;;;0.40;0.40;;;5.20;99.90;;;;;;2087853;28;20218;-72
2023/11/04 01:36:16;;;;;;;0.87;0.50;;;5.10;99.90;;;;;;2087957;28;20204;-72
2023/11/04 01:37:19;;;;;;;0.40;0.40;;;5.20;99.90;;;;;;2093959;28;20616;-73
2023/11/04 01:38:19;;;;;;;1.25;0.50;;;5.10;99.90;;;;;;2094443;28;20182;-72
2023/11/04 01:39:20;;;;;;;0.53;0.53;;;5.10;99.90;;;;;;2084441;28;20199;-72
2023/11/04 01:40:21;;;;;;;0.93;0.47;;;5.20;99.90;;;;;;2092409;28;20238;-72
2023/11/04 01:41:22;;;;;;;0.60;0.53;;;5.20;99.90;;;;;;2093604;28;20216;-72
2023/11/04 01:42:23;;;;;;;0.38;0.38;;;5.20;99.90;;;;;;2087968;28;20235;-72
2023/11/04 01:43:27;;;;;;;0.40;0.40;;;5.30;99.90;;;;;;2096009;28;20269;-72
2023/11/04 01:44:28;;;;;;;0.60;0.60;;;5.30;99.90;;;;;;2094707;28;20693;-72
2023/11/04 01:45:28;;;;;;;0.40;0.40;;;5.40;99.90;;;;;;2084508;28;20240;-72
2023/11/04 01:46:29;;;;;;;0.50;0.50;;;5.40;99.90;;;;;;2081734;28;20236;-71
2023/11/04 01:47:30;;;;;;;0.40;0.40;;;5.40;99.90;;;;;;2084192;28;20236;-72
2023/11/04 01:48:30;;;;;;;1.03;0.50;;;5.30;99.90;;;;;;2080172;28;20240;-72
2023/11/04 01:49:31;;;;;;;0.40;0.40;;;5.40;99.90;;;;;;2089077;28;20228;-72
2023/11/04 01:50:32;;;;;;;0.40;0.40;;;5.40;99.90;;;;;;2087248;28;20232;-72
2023/11/04 01:51:34;;;;;;;0.95;0.73;;;5.40;99.90;;;;;;2093734;28;20616;-73
2023/11/04 01:52:38;;;;;;;0.68;0.63;;;5.40;99.90;;;;;;2093368;28;20242;-72
2023/11/04 01:53:41;;;;;;;1.08;0.80;;;5.40;99.90;;;;;;2091399;28;20236;-72
2023/11/04 01:54:42;;;;;;;0.70;0.68;;;5.40;99.90;;;;;;2090512;28;20277;-71
2023/11/04 01:55:43;;;;;;;1.60;1.17;;;5.40;99.90;;;;;;2093233;27;20301;-72
2023/11/04 01:56:44;;;;;;;1.37;1.07;;;5.40;99.90;;;;;;2094732;28;20608;-72
2023/11/04 01:57:45;;;;;;;0.80;0.70;;;5.30;99.90;;;;;;2092017;28;20241;-72
2023/11/04 01:58:47;;;;;;;4.70;1.45;;;5.30;99.90;;;;;;2091286;28;20335;-72
2023/11/04 01:59:48;;;;;;;1.63;0.93;;;5.30;99.90;;;;;;2087631;28;20231;-72
2023/11/04 02:00:49;;;;;;;1.50;0.93;;;5.30;99.90;;;;;;2083371;28;20235;-72
2023/11/04 02:01:50;;;;;;;3.97;1.30;;;5.30;99.90;;;;;;2084508;28;20326;-72
2023/11/04 02:02:52;;;;;;;2.70;1.03;;;5.20;99.90;;;;;;2081663;28;20240;-72
2023/11/04 02:03:53;;;;;;;1.48;1.10;;;5.20;99.90;;;;;;2080562;28;20231;-72
2023/11/04 02:04:54;;;;;;;1.10;0.70;;;5.20;99.90;;;;;;2091439;28;20705;-72
2023/11/04 02:05:54;;;;;;;1.30;1.00;;;5.20;99.90;;;;;;2092299;28;20238;-71
2023/11/04 02:06:55;;;;;;;1.63;1.20;;;5.20;99.90;;;;;;2092566;28;20242;-72
2023/11/04 02:07:56;;;;;;;0.60;0.60;;;5.30;99.90;;;;;;2088599;28;20257;-72
2023/11/04 02:08:57;;;;;;;1.50;0.80;;;5.30;99.90;;;;;;2095942;28;20266;-73
2023/11/04 02:09:58;;;;;;;3.17;0.80;;;5.30;99.90;;;;;;2096987;28;20326;-72
2023/11/04 02:10:59;;;;;;;0.97;0.67;;;5.30;99.90;;;;;;2095608;28;20270;-72
2023/11/04 02:11:59;;;;;;;0.73;0.60;;;5.30;99.90;;;;;;2087189;28;20239;-73
2023/11/04 02:13:01;;;;;;;0.70;0.70;;;5.30;99.90;;;;;;2085641;28;20633;-72
2023/11/04 02:14:01;;;;;;;0.60;0.60;;;5.30;99.90;;;;;;2086622;28;20251;-73
2023/11/04 02:15:02;;;;;;;2.80;0.50;;;5.20;99.90;;;;;;2089647;28;20631;-72
2023/11/04 02:16:04;;;;;;;0.50;0.50;;;5.10;99.90;;;;;;2089963;28;20225;-72
2023/11/04 02:17:04;;;;;;;0.93;0.70;;;5.10;99.90;;;;;;2080888;28;20177;-72
2023/11/04 02:18:05;;;;;;;0.60;0.50;;;5.00;99.90;;;;;;2078811;28;20189;-72
2023/11/04 02:19:05;;;;;;;0.50;0.50;;;5.00;99.90;;;;;;2088254;28;20298;-72
2023/11/04 02:20:10;;;;;;;0.60;0.50;;;5.10;99.90;;;;;;2088936;28;20199;-72
2023/11/04 02:21:10;;;;;;;0.55;0.50;;;5.10;99.90;;;;;;2089993;28;20192;-72
2023/11/04 02:22:11;;;;;;;0.43;0.43;;;5.10;99.90;;;;;;2095404;28;20183;-72
2023/11/04 02:23:13;;;;;;;0.50;0.50;;;5.10;99.90;;;;;;2093521;28;20207;-72
2023/11/04 02:24:14;;;;;;;0.65;0.50;;;5.10;99.90;;;;;;2087782;28;20189;-72
2023/11/04 02:25:18;;;;;;;0.60;0.60;;;5.10;99.90;;;;;;2089607;28;20184;-72
2023/11/04 02:26:18;;;;;;;0.50;0.50;;;5.10;99.90;;;;;;2081207;28;20180;-72
2023/11/04 02:27:19;;;;;;;2.07;0.57;;;5.10;99.90;;;;;;2079565;28;20610;-72
2023/11/04 02:28:20;;;;;;;1.70;0.43;;;5.00;99.90;;;;;;2086591;28;20196;-71
2023/11/04 02:29:21;;;;;;;0.50;0.50;;;5.10;99.90;;;;;;2082558;28;20244;-71
2023/11/04 02:30:21;;;;;;;1.57;0.50;;;5.10;99.90;;;;;;2076823;28;20228;-71
2023/11/04 02:31:22;;;;;;;0.60;0.60;;;5.20;99.90;;;;;;2079091;28;20275;-72
2023/11/04 02:32:24;;;;;;;1.17;0.80;;;5.20;99.90;;;;;;2085507;28;20236;-71
2023/11/04 02:33:25;;;;;;;2.65;0.70;;;5.30;99.90;;;;;;2086635;28;20692;-71
2023/11/04 02:34:25;;;;;;;0.40;0.40;;;5.30;99.90;;;;;;2087534;28;20235;-71
2023/11/04 02:35:26;;;;;;;0.50;0.50;;;5.20;99.90;;;;;;2087832;28;20247;-71
2023/11/04 02:36:26;;;;;;;1.23;0.73;;;5.10;99.90;;;;;;2083705;28;20292;-71
2023/11/04 02:37:27;;;;;;;0.40;0.40;;;5.00;99.90;;;;;;2095250;28;20243;-71
2023/11/04 02:38:28;;;;;;;0.57;0.40;;;5.00;99.90;;;;;;2094591;28;20235;-71
2023/11/04 02:39:28;;;;;;;0.60;0.60;;;5.00;99.90;;;;;;2084859;28;20238;-71
2023/11/04 02:40:29;;;;;;;0.40;0.40;;;5.00;99.90;;;;;;2090232;28;20239;-71
2023/11/04 02:41:29;;;;;;;0.40;0.40;;;5.00;99.90;;;;;;2097438;28;20621;-71
2023/11/04 02:42:30;;;;;;;0.40;0.40;;;5.00;99.90;;;;;;2087428;28;20236;-71
2023/11/04 02:43:31;;;;;;;1.03;0.70;;;5.00;99.90;;;;;;2082877;28;20710;-72
2023/11/04 02:44:33;;;;;;;0.50;0.50;;;5.00;99.90;;;;;;2093930;28;20247;-71
2023/11/04 02:45:36;;;;;;;0.85;0.70;;;5.00;99.90;;;;;;2087326;28;20695;-71
2023/11/04 02:46:37;;;;;;;0.40;0.40;;;5.00;99.90;;;;;;2081229;28;20236;-71
2023/11/04 02:47:37;;;;;;;0.70;0.67;;;5.00;99.90;;;;;;2081925;28;20268;-71
2023/11/04 02:48:38;;;;;;;0.83;0.80;;;5.00;99.90;;;;;;2080786;28;20247;-72
2023/11/04 02:49:38;;;;;;;0.50;0.50;;;5.00;99.90;;;;;;2087255;28;20252;-71
2023/11/04 02:50:39;;;;;;;0.60;0.60;;;5.00;99.90;;;;;;2087329;28;20238;-71
2023/11/04 02:51:40;;;;;;;0.60;0.60;;;5.00;99.90;;;;;;2093199;28;20254;-72
2023/11/04 02:52:40;;;;;;;0.80;0.53;;;5.10;99.90;;;;;;2080217;28;20225;-71
2023/11/04 02:53:41;;;;;;;0.50;0.50;;;5.00;99.90;;;;;;2083291;28;20311;-72
2023/11/04 02:54:41;;;;;;;0.57;0.50;;;5.00;99.90;;;;;;2084956;28;20243;-72
2023/11/04 02:55:42;;;;;;;0.60;0.60;;;5.00;99.90;;;;;;2086534;28;20283;-72
2023/11/04 02:56:43;;;;;;;0.97;0.47;;;5.00;99.90;;;;;;2084386;28;20779;-71
2023/11/04 02:57:44;;;;;;;0.77;0.40;;;4.90;99.90;;;;;;2086685;28;20231;-71
2023/11/04 02:58:44;;;;;;;0.40;0.40;;;4.90;99.90;;;;;;2085580;28;20347;-70
2023/11/04 02:59:45;;;;;;;0.40;0.40;;;4.90;99.90;;;;;;2091269;28;20764;-72
2023/11/04 03:00:45;;;;;;;0.43;0.40;;;4.90;99.90;;;;;;2081907;28;20241;-72
2023/11/04 03:01:46;;;;;;;0.50;0.50;;;4.80;99.90;;;;;;2078868;28;20283;-71
2023/11/04 03:02:47;;;;;;;0.40;0.40;;;4.80;99.90;;;;;;2082648;28;20717;-72
2023/11/04 03:03:47;;;;;;;0.40;0.40;;;4.80;99.90;;;;;;2088977;28;20250;-72
2023/11/04 03:04:48;;;;;;;0.53;0.53;;;4.80;99.90;;;;;;2090249;28;20858;-72
2023/11/04 03:05:48;;;;;;;0.40;0.40;;;4.80;99.90;;;;;;2089466;28;20234;-72
2023/11/04 03:06:49;;;;;;;0.50;0.50;;;4.80;99.90;;;;;;2089233;28;20228;-71
2023/11/04 03:07:50;;;;;;;0.40;0.40;;;4.90;99.90;;;;;;2080796;28;20232;-71
2023/11/04 03:08:50;;;;;;;0.40;0.40;;;4.90;99.90;;;;;;2079383;28;20243;-71
2023/11/04 03:09:51;;;;;;;0.40;0.40;;;4.90;99.90;;;;;;2083751;28;20236;-71
2023/11/04 03:10:52;;;;;;;0.47;0.47;;;4.80;99.90;;;;;;2080717;28;20258;-71
2023/11/04 03:11:56;;;;;;;0.50;0.50;;;4.80;99.90;;;;;;2078905;28;20235;-71
2023/11/04 03:12:56;;;;;;;3.33;0.63;;;4.80;99.90;;;;;;2090742;28;20223;-72
2023/11/04 03:13:57;;;;;;;1.30;0.50;;;4.80;99.90;;;;;;2088127;28;20547;-72
2023/11/04 03:14:58;;;;;;;0.50;0.50;;;4.80;99.90;;;;;;2081942;28;20243;-72
2023/11/04 03:15:58;;;;;;;1.17;0.50;;;4.90;99.90;;;;;;2082722;28;20235;-72
2023/11/04 03:16:59;;;;;;;0.50;0.50;;;4.80;99.90;;;;;;2081270;28;20699;-72
2023/11/04 03:18:01;;;;;;;0.77;0.60;;;4.90;99.90;;;;;;2089084;28;20318;-72
2023/11/04 03:19:02;;;;;;;0.82;0.50;;;4.80;99.90;;;;;;2096208;28;20223;-72
2023/11/04 03:20:03;;;;;;;0.40;0.40;;;4.80;99.90;;;;;;2081473;28;20559;-70
2023/11/04 03:21:07;;;;;;;0.40;0.40;;;4.90;99.90;;;;;;2081863;28;20610;-71
2023/11/04 03:22:08;;;;;;;0.38;0.38;;;4.90;99.90;;;;;;2088272;28;20199;-72
2023/11/04 03:23:08;;;;;;;0.50;0.50;;;4.90;99.90;;;;;;2087835;28;20227;-71
2023/11/04 03:24:09;;;;;;;1.27;0.77;;;4.90;99.90;;;;;;2087903;28;20214;-71
2023/11/04 03:25:12;;;;;;;0.40;0.40;;;4.90;99.90;;;;;;2078708;28;20271;-73
2023/11/04 03:26:13;;;;;;;0.55;0.50;;;4.90;99.90;;;;;;2086938;28;20278;-72
2023/11/04 03:27:13;;;;;;;0.50;0.50;;;4.90;99.90;;;;;;2086548;28;20219;-72
2023/11/04 03:28:14;;;;;;;0.60;0.60;;;4.90;99.90;;;;;;2085613;28;20510;-72
2023/11/04 03:29:14;;;;;;;2.63;0.87;;;4.90;99.90;;;;;;2089793;28;20232;-72
2023/11/04 03:30:15;;;;;;;0.47;0.47;;;4.90;99.90;;;;;;2095281;28;20703;-72
2023/11/04 03:31:16;;;;;;;0.83;0.83;;;4.90;99.90;;;;;;2075381;28;20189;-72
2023/11/04 03:32:16;;;;;;;1.03;0.50;;;4.80;99.90;;;;;;2074959;28;20705;-72
2023/11/04 03:33:17;;;;;;;0.53;0.53;;;4.90;99.90;;;;;;2082729;28;20176;-73
2023/11/04 03:34:19;;;;;;;0.50;0.50;;;4.80;99.90;;;;;;2088248;28;20207;-71
2023/11/04 03:35:20;;;;;;;0.45;0.45;;;4.90;99.90;;;;;;2081120;28;20689;-72
2023/11/04 03:36:20;;;;;;;0.50;0.50;;;4.90;99.90;;;;;;2072360;28;20233;-72
2023/11/04 03:37:21;;;;;;;0.90;0.50;;;4.90;99.90;;;;;;2072406;28;20240;-72
2023/11/04 03:38:21;;;;;;;0.40;0.40;;;4.90;99.90;;;;;;2081375;28;20224;-72
2023/11/04 03:39:22;;;;;;;0.60;0.50;;;5.00;99.90;;;;;;2091967;28;20273;-72
2023/11/04 03:40:22;;;;;;;0.50;0.50;;;4.90;99.90;;;;;;2088295;28;20241;-72
2023/11/04 03:41:23;;;;;;;0.40;0.40;;;4.90;99.90;;;;;;2087504;28;20243;-71
2023/11/04 03:42:24;;;;;;;0.60;0.60;;;4.90;99.90;;;;;;2078773;28;20710;-71
2023/11/04 03:43:25;;;;;;;0.47;0.47;;;4.90;99.90;;;;;;2078428;28;20318;-72
2023/11/04 03:44:26;;;;;;;0.80;0.50;;;5.00;99.90;;;;;;2084346;28;20233;-72
2023/11/04 03:45:26;;;;;;;0.30;0.30;;;5.00;99.90;;;;;;2084249;28;20629;-72
2023/11/04 03:46:27;;;;;;;0.40;0.40;;;5.00;99.90;;;;;;2086744;28;20289;-72
2023/11/04 03:47:27;;;;;;;1.80;0.50;;;5.00;99.90;;;;;;2093214;28;20227;-72
2023/11/04 03:48:28;;;;;;;0.80;0.60;;;5.00;99.90;;;;;;2082055;28;20698;-72
2023/11/04 03:49:29;;;;;;;0.60;0.40;;;5.00;99.90;;;;;;2090774;28;20227;-72
2023/11/04 03:50:29;;;;;;;0.40;0.40;;;5.00;99.90;;;;;;2080986;28;20694;-72
2023/11/04 03:51:30;;;;;;;0.40;0.40;;;5.00;99.90;;;;;;2078372;28;20233;-72
2023/11/04 03:52:31;;;;;;;0.60;0.60;;;4.90;99.90;;;;;;2086587;28;20295;-72
2023/11/04 03:53:32;;;;;;;2.03;0.80;;;5.00;99.90;;;;;;2083579;28;20220;-72
2023/11/04 03:54:33;;;;;;;0.50;0.50;;;5.00;99.90;;;;;;2083116;28;20342;-71
2023/11/04 03:55:35;;;;;;;0.55;0.50;;;5.10;99.90;;;;;;2085933;28;20244;-72
2023/11/04 03:56:35;;;;;;;1.25;0.85;;;5.00;99.90;;;;;;2087062;28;20657;-71
2023/11/04 03:57:36;;;;;;;0.50;0.50;;;5.00;99.90;;;;;;2092011;28;20232;-72
2023/11/04 03:58:36;;;;;;;0.90;0.60;;;5.00;99.90;;;;;;2095606;28;20605;-71
2023/11/04 03:59:38;;;;;;;1.50;0.50;;;5.00;99.90;;;;;;2090187;28;20257;-71
2023/11/04 04:00:39;;;;;;;0.50;0.50;;;4.90;99.90;;;;;;2078728;28;20246;-71
2023/11/04 04:01:40;;;;;;;0.50;0.50;;;4.90;99.90;;;;;;2081303;28;20231;-71
2023/11/04 04:02:41;;;;;;;0.60;0.60;;;5.00;99.90;;;;;;2080900;28;20718;-72
2023/11/04 04:03:41;;;;;;;0.40;0.40;;;4.90;99.90;;;;;;2080688;28;20238;-71
2023/11/04 04:04:42;;;;;;;0.70;0.70;;;5.00;99.90;;;;;;2079238;28;20323;-70
2023/11/04 04:05:43;;;;;;;0.60;0.50;;;5.00;99.90;;;;;;2081381;28;20286;-72
2023/11/04 04:06:44;;;;;;;0.50;0.50;;;5.00;99.90;;;;;;2082671;28;20263;-72
2023/11/04 04:07:44;;;;;;;0.50;0.50;;;5.00;99.90;;;;;;2087962;28;20238;-72
2023/11/04 04:08:45;;;;;;;0.53;0.53;;;5.00;99.90;;;;;;2089445;28;20342;-72
2023/11/04 04:09:45;;;;;;;0.40;0.40;;;4.90;99.90;;;;;;2088124;28;20258;-72
2023/11/04 04:10:46;;;;;;;0.40;0.40;;;4.90;99.90;;;;;;2081159;28;20239;-72
2023/11/04 04:11:46;;;;;;;2.20;0.67;;;4.90;99.90;;;;;;2085124;28;20714;-72
2023/11/04 04:12:47;;;;;;;0.50;0.50;;;4.90;99.90;;;;;;2087787;28;20231;-72
2023/11/04 04:13:48;;;;;;;0.50;0.40;;;4.90;99.90;;;;;;2087216;28;20235;-72
2023/11/04 04:14:49;;;;;;;0.50;0.50;;;4.80;99.90;;;;;;2094682;28;20248;-72
2023/11/04 04:15:49;;;;;;;0.40;0.40;;;4.80;99.90;;;;;;2090685;28;20232;-71
2023/11/04 04:16:50;;;;;;;0.43;0.40;;;4.80;99.90;;;;;;2082438;28;20232;-72
2023/11/04 04:17:50;;;;;;;0.63;0.63;;;4.80;99.90;;;;;;2085714;28;20346;-72
2023/11/04 04:18:51;;;;;;;0.50;0.50;;;4.70;99.90;;;;;;2078740;28;20232;-72
2023/11/04 04:19:52;;;;;;;0.60;0.50;;;4.80;99.90;;;;;;2087153;28;20625;-71
2023/11/04 04:20:52;;;;;;;0.50;0.50;;;4.80;99.90;;;;;;2081530;28;20301;-72
2023/11/04 04:21:53;;;;;;;0.50;0.50;;;4.80;99.90;;;;;;2080773;28;20243;-72
2023/11/04 04:22:53;;;;;;;0.60;0.60;;;4.80;99.90;;;;;;2081063;28;20748;-72
2023/11/04 04:23:54;;;;;;;0.40;0.40;;;4.80;99.90;;;;;;2080875;28;20646;-72
2023/11/04 04:24:55;;;;;;;0.50;0.50;;;4.80;99.90;;;;;;2088405;28;20414;-72
2023/11/04 04:25:55;;;;;;;0.50;0.50;;;4.70;99.90;;;;;;2094796;28;20310;-72
2023/11/04 04:26:56;;;;;;;0.50;0.50;;;4.60;99.90;;;;;;2095139;28;20702;-72
2023/11/04 04:27:56;;;;;;;0.40;0.40;;;4.60;99.90;;;;;;2087955;28;20798;-72
2023/11/04 04:28:57;;;;;;;0.70;0.70;;;4.50;99.90;;;;;;2087765;28;20311;-70
2023/11/04 04:29:58;;;;;;;0.70;0.70;;;4.50;99.90;;;;;;2091027;28;20259;-71
2023/11/04 04:30:58;;;;;;;0.50;0.50;;;4.50;99.90;;;;;;2087442;28;20485;-72
2023/11/04 04:31:59;;;;;;;0.50;0.50;;;4.50;99.90;;;;;;2086959;28;20266;-72
2023/11/04 04:32:59;;;;;;;0.77;0.43;;;4.50;99.90;;;;;;2085320;28;20236;-72
2023/11/04 04:34:00;;;;;;;0.40;0.40;;;4.40;99.90;;;;;;2081991;28;20236;-72
2023/11/04 04:35:01;;;;;;;0.60;0.47;;;4.50;99.90;;;;;;2082577;28;20654;-73
2023/11/04 04:36:01;;;;;;;0.57;0.57;;;4.40;99.90;;;;;;2085717;28;20200;-72
2023/11/04 04:37:02;;;;;;;0.30;0.30;;;4.50;99.90;;;;;;2080531;28;20272;-72
2023/11/04 04:38:02;;;;;;;0.57;0.57;;;4.50;99.90;;;;;;2079212;28;20193;-72
2023/11/04 04:39:03;;;;;;;0.40;0.40;;;4.50;99.90;;;;;;2081809;28;20212;-72
2023/11/04 04:40:05;;;;;;;1.90;0.57;;;4.50;99.90;;;;;;2079002;28;20197;-71
2023/11/04 04:41:06;;;;;;;0.43;0.43;;;4.60;99.90;;;;;;2080522;28;20271;-72
2023/11/04 04:42:06;;;;;;;0.60;0.60;;;4.50;99.90;;;;;;2081487;28;20231;-72
2023/11/04 04:43:07;;;;;;;0.50;0.50;;;4.60;99.90;;;;;;2090762;28;20228;-72
2023/11/04 04:44:07;;;;;;;0.67;0.60;;;4.60;99.90;;;;;;2096329;28;20676;-72
2023/11/04 04:45:10;;;;;;;0.77;0.40;;;4.60;99.90;;;;;;2096296;28;20616;-70
2023/11/04 04:46:11;;;;;;;0.40;0.40;;;4.50;99.90;;;;;;2094759;28;20332;-72
2023/11/04 04:47:11;;;;;;;0.87;0.50;;;4.50;99.90;;;;;;2096420;28;20192;-71
2023/11/04 04:48:12;;;;;;;0.40;0.40;;;4.50;99.90;;;;;;2088591;28;20428;-72
2023/11/04 04:49:12;;;;;;;0.50;0.50;;;4.40;99.90;;;;;;2088850;28;20291;-72
2023/11/04 04:50:13;;;;;;;0.40;0.40;;;4.40;99.90;;;;;;2088808;28;20204;-72
2023/11/04 04:51:16;;;;;;;0.50;0.50;;;4.40;99.90;;;;;;2088890;28;20696;-72
2023/11/04 04:52:17;;;;;;;0.40;0.40;;;4.40;99.90;;;;;;2096511;28;20194;-71
2023/11/04 04:53:18;;;;;;;0.40;0.40;;;4.50;99.90;;;;;;2096334;28;20210;-72
2023/11/04 04:54:18;;;;;;;0.30;0.30;;;4.50;99.90;;;;;;2091402;28;20444;-72
2023/11/04 04:55:20;;;;;;;0.83;0.60;;;4.50;99.90;;;;;;2093778;28;20639;-72
2023/11/04 04:56:21;;;;;;;1.20;0.80;;;4.50;99.90;;;;;;2089499;28;20235;-72
2023/11/04 04:57:22;;;;;;;0.40;0.40;;;4.50;99.90;;;;;;2090643;28;20293;-72
2023/11/04 04:58:22;;;;;;;0.40;0.40;;;4.40;99.90;;;;;;2088225;28;20236;-72
2023/11/04 04:59:23;;;;;;;0.40;0.40;;;4.40;99.90;;;;;;2087973;28;20406;-72
2023/11/04 05:00:24;;;;;;;0.40;0.40;;;4.40;99.90;;;;;;2096457;28;20235;-70
2023/11/04 05:01:24;;;;;;;0.47;0.47;;;4.40;99.90;;;;;;2100781;28;20226;-72
2023/11/04 05:02:25;;;;;;;0.63;0.60;;;4.40;99.90;;;;;;2092671;28;20235;-71
2023/11/04 05:03:26;;;;;;;0.60;0.60;;;4.40;99.90;;;;;;2092271;28;20229;-72
2023/11/04 05:04:27;;;;;;;0.70;0.70;;;4.40;99.90;;;;;;2087098;28;20240;-72
2023/11/04 05:05:27;;;;;;;2.20;0.77;;;4.30;99.90;;;;;;2084687;28;20678;-72
2023/11/04 05:06:28;;;;;;;1.00;0.90;;;4.30;99.90;;;;;;2084234;28;20291;-72
2023/11/04 05:07:29;;;;;;;0.90;0.70;;;4.20;99.90;;;;;;2081607;28;20738;-72
2023/11/04 05:08:30;;;;;;;0.97;0.87;;;4.10;99.90;;;;;;2085030;28;20246;-72
2023/11/04 05:09:30;;;;;;;0.73;0.73;;;4.00;99.90;;;;;;2089155;28;20242;-72
2023/11/04 05:10:31;;;;;;;1.30;1.20;;;4.00;99.90;;;;;;2091172;28;20236;-72
2023/11/04 05:11:31;;;;;;;0.80;0.80;;;3.90;99.90;;;;;;2089152;28;20238;-72
2023/11/04 05:12:32;;;;;;;2.90;1.37;;;3.90;99.90;;;;;;2089608;28;20232;-72
2023/11/04 05:13:32;;;;;;;1.30;1.20;;;3.90;99.90;;;;;;2089567;28;20290;-72
2023/11/04 05:14:33;;;;;;;2.53;1.00;;;3.90;99.90;;;;;;2091757;28;20243;-72
2023/11/04 05:15:34;;;;;;;1.30;1.20;;;3.90;99.90;;;;;;2092242;28;20243;-72
2023/11/04 05:16:37;;;;;;;1.50;1.10;;;3.80;99.90;;;;;;2087105;28;20236;-72
2023/11/04 05:17:37;;;;;;;1.38;1.23;;;3.80;99.90;;;;;;2086155;28;20582;-72
2023/11/04 05:18:38;;;;;;;1.20;1.10;;;3.90;99.90;;;;;;2087229;28;20270;-72
2023/11/04 05:19:38;;;;;;;1.20;1.10;;;3.90;99.90;;;;;;2093607;28;20731;-72
2023/11/04 05:20:39;;;;;;;1.20;1.10;;;3.90;99.90;;;;;;2090390;28;20693;-72
2023/11/04 05:21:40;;;;;;;1.40;1.30;;;3.90;99.90;;;;;;2072972;28;20228;-72